首页
METAR-TAF:

METAR-TAF

机场 :

Passo Rolle, 意大利

纬度: 46-18N, 经度: 011-47E, 海拔: 2004米

当前天气观测

该预报发布于21分钟前的04:55 UTC
风速9节,风向西北
温度 5°C
湿度 56%
气压 1029 hPa
能见度10公里或以上
多云层高于4000英尺

METAR: LIVR 250455Z 31009KT 9999 BKN040 05/M03 Q1029 RMK BKN MON CLD CIME VIS MIN 9999

时间: 07:16 (05:16 UTC)


TAF: 丢失

超过4000个机场的气象观测和天气预报(METAR&TAF报告)。

可查询的气象台以黄色和红色小点在地图上表示。

将鼠标移到小点上方,可查看气象台名称。

然后点击查看天气观测和预报。

如需切换地图:点击带黑十字的绿色按钮放大地图;点击带横线的绿色按钮缩小地图;或者点击绿色箭头查看邻近地区的地图。


METAR-TAF: